createdAt,value
2019-01-29T00:03:02.147Z,0.30
2019-01-29T00:07:53.610Z,0.30
2019-01-29T00:12:49.114Z,0.30
2019-01-29T00:17:40.596Z,0.30
2019-01-29T00:22:34.320Z,0.30
2019-01-29T00:27:23.403Z,0.30
2019-01-29T00:32:14.743Z,0.90
2019-01-29T00:37:06.189Z,0.30
2019-01-29T00:41:57.607Z,0.30
2019-01-29T00:51:40.304Z,0.20
2019-01-29T00:56:31.749Z,0.10
2019-01-29T01:01:25.321Z,0.00
2019-01-29T01:06:16.839Z,-0.10
2019-01-29T01:11:08.173Z,0.00
2019-01-29T01:15:59.573Z,-0.10
2019-01-29T01:20:50.999Z,0.00
2019-01-29T01:25:42.418Z,0.10
2019-01-29T01:30:33.693Z,0.10
2019-01-29T01:35:25.124Z,0.20
2019-01-29T01:40:16.556Z,0.20
2019-01-29T01:45:07.917Z,0.20
2019-01-29T01:49:59.300Z,0.30
2019-01-29T01:54:50.722Z,0.40
2019-01-29T01:59:42.199Z,0.40
2019-01-29T02:04:33.534Z,0.50
2019-01-29T02:09:24.878Z,0.60
2019-01-29T02:14:16.244Z,0.70
2019-01-29T02:19:07.741Z,0.80
2019-01-29T02:23:59.035Z,0.90
2019-01-29T02:28:51.098Z,0.80
2019-01-29T02:33:42.455Z,0.70
2019-01-29T02:38:33.841Z,0.60
2019-01-29T02:43:27.406Z,0.60
2019-01-29T02:48:18.804Z,0.60
2019-01-29T02:53:19.107Z,0.60
2019-01-29T02:58:03.971Z,0.50
2019-01-29T03:02:57.507Z,0.50
2019-01-29T03:07:55.761Z,0.60
2019-01-29T03:12:47.161Z,0.60
2019-01-29T03:17:38.659Z,0.30
2019-01-29T03:22:29.941Z,0.40
2019-01-29T03:27:21.442Z,0.30
2019-01-29T03:32:12.787Z,0.20
2019-01-29T03:37:04.285Z,0.00
2019-01-29T03:41:55.526Z,-0.10
2019-01-29T03:46:47.022Z,-0.20
2019-01-29T03:51:38.311Z,-0.30
2019-01-29T03:56:29.865Z,-0.40
2019-01-29T04:01:21.113Z,-0.50
2019-01-29T04:06:12.546Z,-0.60
2019-01-29T04:15:55.368Z,-0.70
2019-01-29T04:20:46.683Z,-0.70
2019-01-29T04:25:40.337Z,-0.70
2019-01-29T04:30:31.740Z,-0.70
2019-01-29T04:35:23.214Z,-0.60
2019-01-29T04:40:14.573Z,-0.50
2019-01-29T04:45:05.928Z,-0.70
2019-01-29T04:49:57.292Z,-0.30
2019-01-29T04:54:48.684Z,-0.30
2019-01-29T04:59:40.081Z,-0.30
2019-01-29T05:04:31.441Z,-0.10
2019-01-29T05:09:22.866Z,-0.10
2019-01-29T05:14:14.358Z,-0.10
2019-01-29T05:19:05.688Z,-0.20
2019-01-29T05:24:07.395Z,-0.20
2019-01-29T05:28:50.741Z,-0.20
2019-01-29T05:33:42.334Z,-0.10
2019-01-29T05:38:33.524Z,0.00
2019-01-29T05:43:25.072Z,0.10
2019-01-29T05:48:16.342Z,0.10
2019-01-29T05:53:09.958Z,0.20
2019-01-29T05:58:03.658Z,0.30
2019-01-29T06:02:55.165Z,0.30
2019-01-29T06:07:46.498Z,0.30
2019-01-29T06:17:36.032Z,0.40
2019-01-29T06:22:27.514Z,0.40
2019-01-29T06:27:21.066Z,0.50
2019-01-29T06:32:26.111Z,0.60
2019-01-29T06:37:17.857Z,0.50
2019-01-29T06:42:08.929Z,0.40
2019-01-29T06:47:00.308Z,0.40
2019-01-29T06:51:51.837Z,0.40
2019-01-29T06:56:43.159Z,0.40
2019-01-29T07:01:36.761Z,0.40
2019-01-29T07:06:30.470Z,0.40
2019-01-29T07:11:22.012Z,0.40
2019-01-29T07:16:13.402Z,0.40
2019-01-29T07:26:00.480Z,0.40
2019-01-29T07:30:51.904Z,0.50
2019-01-29T07:35:43.312Z,0.50
2019-01-29T07:40:34.636Z,0.60
2019-01-29T07:45:28.290Z,0.50
2019-01-29T07:50:19.775Z,0.50
2019-01-29T07:55:11.218Z,0.50
2019-01-29T08:00:06.946Z,0.80
2019-01-29T08:04:58.436Z,1.00
2019-01-29T08:09:49.959Z,1.10
2019-01-29T08:14:41.198Z,1.20
2019-01-29T08:19:32.608Z,1.20
2019-01-29T08:24:24.010Z,1.10
2019-01-29T08:29:15.473Z,1.30
2019-01-29T08:34:06.879Z,1.30
2019-01-29T08:39:00.391Z,1.30
2019-01-29T08:43:51.804Z,1.40
2019-01-29T08:48:45.470Z,1.60
2019-01-29T08:53:39.123Z,1.70
2019-01-29T08:58:30.654Z,1.80
2019-01-29T09:03:22.063Z,2.10
2019-01-29T09:08:13.976Z,2.20
2019-01-29T09:13:04.764Z,2.30
2019-01-29T09:17:56.182Z,2.40
2019-01-29T09:22:47.601Z,2.30
2019-01-29T09:27:39.223Z,2.20
2019-01-29T09:32:30.435Z,2.00
2019-01-29T09:37:23.960Z,2.00
2019-01-29T09:42:17.635Z,2.00
2019-01-29T09:47:09.139Z,2.20
2019-01-29T09:52:00.536Z,2.50
2019-01-29T09:56:51.875Z,2.70
2019-01-29T10:01:43.324Z,2.90
2019-01-29T10:06:34.756Z,2.90
2019-01-29T10:11:26.085Z,2.90
2019-01-29T10:16:19.669Z,3.00
2019-01-29T10:21:13.335Z,3.00
2019-01-29T10:26:04.922Z,3.10
2019-01-29T10:30:56.124Z,2.80
2019-01-29T10:35:49.783Z,2.80
2019-01-29T10:40:41.152Z,3.10
2019-01-29T10:45:32.645Z,3.30
2019-01-29T10:50:24.153Z,3.70
2019-01-29T10:55:15.512Z,3.10
2019-01-29T11:00:06.917Z,3.70
2019-01-29T11:04:58.421Z,3.80
2019-01-29T11:09:49.797Z,3.90
2019-01-29T11:14:41.187Z,4.20
2019-01-29T11:19:34.843Z,4.20
2019-01-29T11:24:24.019Z,4.30
2019-01-29T11:29:15.371Z,4.30
2019-01-29T11:34:06.808Z,4.10
2019-01-29T11:38:58.117Z,4.00
2019-01-29T11:43:49.574Z,4.00
2019-01-29T11:48:40.899Z,4.00
2019-01-29T11:53:32.352Z,4.30
2019-01-29T11:58:23.702Z,4.30
2019-01-29T12:03:15.270Z,4.30
2019-01-29T12:08:06.511Z,4.40
2019-01-29T12:12:58.003Z,4.40
2019-01-29T12:17:49.383Z,4.20
2019-01-29T12:22:40.886Z,4.10
2019-01-29T12:27:32.193Z,3.90
2019-01-29T12:32:23.645Z,4.00
2019-01-29T12:37:15.026Z,4.20
2019-01-29T12:42:06.580Z,4.00
2019-01-29T12:46:57.774Z,4.30
2019-01-29T12:51:49.262Z,4.30
2019-01-29T12:56:40.592Z,4.40
2019-01-29T13:01:32.169Z,4.60
2019-01-29T13:06:23.386Z,4.70
2019-01-29T13:11:14.827Z,4.70
2019-01-29T13:16:06.244Z,4.70
2019-01-29T13:20:57.846Z,4.90
2019-01-29T13:25:49.133Z,5.00
2019-01-29T13:30:40.598Z,5.00
2019-01-29T13:35:31.936Z,5.00
2019-01-29T13:40:23.422Z,5.00
2019-01-29T13:45:14.773Z,5.00
2019-01-29T13:50:06.306Z,4.90
2019-01-29T13:54:57.651Z,4.80
2019-01-29T13:59:49.053Z,4.70
2019-01-29T14:04:40.366Z,4.60
2019-01-29T14:09:32.033Z,4.70
2019-01-29T14:14:23.185Z,4.80
2019-01-29T14:19:14.612Z,4.70
2019-01-29T14:24:05.994Z,4.80
2019-01-29T14:28:57.478Z,4.60
2019-01-29T14:33:49.096Z,4.60
2019-01-29T14:38:40.348Z,4.60
2019-01-29T14:43:31.821Z,4.60
2019-01-29T14:48:23.304Z,4.40
2019-01-29T14:53:14.628Z,4.30
2019-01-29T14:58:06.083Z,4.20
2019-01-29T15:02:57.427Z,3.90
2019-01-29T15:07:51.024Z,3.80
2019-01-29T15:12:44.668Z,3.80
2019-01-29T15:17:36.211Z,3.80
2019-01-29T15:22:27.534Z,3.60
2019-01-29T15:27:18.926Z,3.30
2019-01-29T15:32:10.326Z,3.30
2019-01-29T15:37:01.808Z,3.10
2019-01-29T15:41:53.130Z,3.00
2019-01-29T15:46:44.562Z,2.80
2019-01-29T15:51:35.823Z,2.50
2019-01-29T15:56:27.369Z,2.30
2019-01-29T16:01:18.680Z,2.00
2019-01-29T16:06:10.193Z,1.70
2019-01-29T16:11:01.527Z,1.50
2019-01-29T16:15:53.018Z,1.30
2019-01-29T16:20:44.279Z,1.00
2019-01-29T16:25:35.759Z,0.80
2019-01-29T16:30:27.180Z,0.60
2019-01-29T16:35:18.655Z,0.40
2019-01-29T16:40:09.895Z,0.20
2019-01-29T16:45:01.392Z,0.10
2019-01-29T16:49:52.760Z,0.00
2019-01-29T16:54:44.220Z,-0.20
2019-01-29T16:59:35.525Z,-0.40
2019-01-29T17:04:29.222Z,-0.50
2019-01-29T17:09:18.416Z,-0.60
2019-01-29T17:14:09.900Z,-0.60
2019-01-29T17:19:01.256Z,-0.70
2019-01-29T17:23:52.633Z,-0.90
2019-01-29T17:28:43.983Z,-1.00
2019-01-29T17:33:37.588Z,-1.10
2019-01-29T17:38:29.104Z,-1.20
2019-01-29T17:43:20.492Z,-1.10
2019-01-29T17:48:14.060Z,-1.20
2019-01-29T17:53:05.657Z,-1.20
2019-01-29T17:57:56.889Z,-1.20
2019-01-29T18:02:48.299Z,-1.20
2019-01-29T18:07:39.799Z,-1.20
2019-01-29T18:12:31.169Z,-1.20
2019-01-29T18:17:22.455Z,-1.20
2019-01-29T18:22:13.880Z,-1.20
2019-01-29T18:27:05.266Z,-1.30
2019-01-29T18:31:56.744Z,-1.20
2019-01-29T18:36:48.122Z,-1.20
2019-01-29T18:41:39.474Z,-1.30
2019-01-29T18:46:30.879Z,-1.20
2019-01-29T18:51:22.377Z,-1.30
2019-01-29T18:56:13.692Z,-1.30
2019-01-29T19:01:05.127Z,-1.30
2019-01-29T19:05:56.465Z,-1.30
2019-01-29T19:10:47.944Z,-1.30
2019-01-29T19:15:39.302Z,-1.50
2019-01-29T19:20:30.758Z,-1.40
2019-01-29T19:25:22.060Z,-1.40
2019-01-29T19:30:13.563Z,-1.40
2019-01-29T19:35:04.840Z,-1.40
2019-01-29T19:39:56.323Z,-1.40
2019-01-29T19:44:47.637Z,-1.30
2019-01-29T19:49:39.174Z,-1.30
2019-01-29T19:59:21.945Z,-1.60
2019-01-29T20:04:13.394Z,-1.50
2019-01-29T20:09:04.788Z,-1.60
2019-01-29T20:13:56.206Z,-1.60
2019-01-29T20:18:49.806Z,-1.70
2019-01-29T20:23:41.710Z,-1.60
2019-01-29T20:28:30.611Z,-1.50
2019-01-29T20:33:21.946Z,-1.60
2019-01-29T20:45:22.669Z,-1.70
2019-01-29T20:50:16.350Z,-1.70
2019-01-29T20:55:07.787Z,-1.80
2019-01-29T20:59:59.166Z,-1.80
2019-01-29T21:04:50.684Z,-1.90
2019-01-29T21:09:41.939Z,-1.90
2019-01-29T21:14:33.340Z,-1.90
2019-01-29T21:19:24.731Z,-1.90
2019-01-29T21:24:18.404Z,-2.00
2019-01-29T21:29:09.787Z,-2.10
2019-01-29T21:34:01.278Z,-2.10
2019-01-29T21:38:52.645Z,-2.30
2019-01-29T21:43:44.208Z,-2.50
2019-01-29T21:48:35.482Z,-2.50
2019-01-29T21:53:27.040Z,-2.60
2019-01-29T21:58:18.270Z,-2.70
2019-01-29T22:03:09.818Z,-2.90
2019-01-29T22:08:01.092Z,-3.10
2019-01-29T22:12:52.766Z,-3.30
2019-01-29T22:17:43.948Z,-3.40
2019-01-29T22:22:35.541Z,-3.40
2019-01-29T22:27:26.784Z,-3.40
2019-01-29T22:32:18.264Z,-3.40
2019-01-29T22:37:09.556Z,-3.60
2019-01-29T22:42:01.056Z,-3.60
2019-01-29T22:46:52.322Z,-3.80
2019-01-29T22:51:43.781Z,-3.80
2019-01-29T22:56:35.169Z,-4.00
2019-01-29T23:01:26.763Z,-3.90
2019-01-29T23:06:17.941Z,-4.00
2019-01-29T23:11:09.399Z,-3.90
2019-01-29T23:16:00.804Z,-3.90
2019-01-29T23:20:52.232Z,-4.00
2019-01-29T23:25:43.697Z,-4.00
2019-01-29T23:30:35.037Z,-4.20
2019-01-29T23:35:26.344Z,-4.20
2019-01-29T23:40:17.833Z,-4.30
2019-01-29T23:45:09.169Z,-4.30
2019-01-29T23:50:00.586Z,-4.40
2019-01-29T23:54:51.900Z,-4.30
2019-01-29T23:59:54.368Z,-4.30
